Latest Weather Observations for Cooma Airport

IDN60901

Issued at 10:11 pm EST Thursday 16 August 2018 (issued every 10 minutes, with the page automatically refreshed every 10 minutes)

About weather observations | Map of Canberra area stations | Latest observations for Canberra area | Other Formats
Station Details ID: 070217 Name: COOMA AIRPORT AWS Lat: -36.29 Lon: 148.97 Height: 930.0 m
Data from the previous 72 hours. | See also: Recent months at Cooma Airport
Date/Time
EST
Temp
°C
App
Temp
°C
Dew
Point
°C
Rel
Hum
%
Delta-T
°C
Wind Press
QNH
hPa
Press
MSL
hPa
Rain since
9am
mm
Dir  Spd
km/h
Gust
km/h
Spd
kts
Gust
kts
16/10:00pm 2.1 -3.2 -3.6 66 2.0 WNW 15 19 8 10 1013.7 1014.8 0.0
16/09:30pm 2.5 -3.2 -3.6 64 2.2 WNW 17 20 9 11 1013.6 1014.7 0.0
16/09:00pm 2.5 -2.8 -3.8 63 2.3 WNW 15 17 8 9 1013.5 1014.6 0.0
16/08:30pm 2.7 -3.4 -4.1 61 2.4 WNW 19 24 10 13 1013.3 1014.3 0.0
16/08:00pm 3.0 -3.1 -3.8 61 2.4 WNW 19 24 10 13 1013.2 1014.2 0.0
16/07:30pm 3.2 -2.5 -3.6 61 2.5 WNW 17 22 9 12 1012.8 1013.9 0.0
16/07:00pm 3.6 -2.1 -3.4 60 2.6 WNW 17 22 9 12 1012.6 1013.7 0.0
16/06:30pm 3.9 -1.4 -3.6 58 2.7 WNW 15 20 8 11 1012.4 1013.4 0.0
16/06:00pm 4.3 -1.4 -3.4 57 2.8 WNW 17 24 9 13 1012.2 1013.2 0.0
16/05:30pm 5.3 -0.8 -3.7 52 3.3 WNW 19 28 10 15 1011.6 1012.7 0.0
16/05:00pm 6.6 0.3 -3.6 48 3.9 WNW 20 32 11 17 1011.3 1012.3 0.0
16/04:30pm 7.7 1.1 -3.5 45 4.3 WNW 22 33 12 18 1011.2 1012.2 0.0
16/04:00pm 8.6 2.4 -3.3 43 4.6 WNW 20 28 11 15 1011.0 1012.0 0.0
16/03:30pm 9.2 2.1 -4.0 39 5.1 W 24 32 13 17 1010.9 1011.9 0.0
16/03:00pm 9.9 2.7 -5.2 34 5.7 W 24 35 13 19 1010.5 1011.5 0.0
16/02:30pm 10.1 2.9 -5.4 33 5.8 WSW 24 35 13 19 1010.3 1011.3 0.0
16/02:00pm 10.2 2.5 -6.1 31 6.1 W 26 35 14 19 1010.3 1011.3 0.0
16/01:30pm 10.3 2.3 -6.1 31 6.1 W 28 37 15 20 1010.1 1011.1 0.0
16/01:00pm 10.6 3.9 -7.6 27 6.6 W 20 33 11 18 1010.2 1011.2 0.0
16/12:30pm 10.6 3.5 -8.1 26 6.6 WSW 22 37 12 20 1010.3 1011.3 0.0
16/12:00pm 10.1 2.2 -8.5 26 6.5 W 26 37 14 20 1010.6 1011.7 0.0
16/11:30am 9.8 2.9 -6.5 31 6.0 W 22 32 12 17 1011.1 1012.1 0.0
16/11:00am 9.4 2.1 -6.4 32 5.8 WSW 24 37 13 20 1011.1 1012.1 0.0
16/10:30am 9.1 1.8 -6.3 33 5.6 W 24 37 13 20 1011.1 1012.1 0.0
16/10:00am 8.5 1.0 -4.6 39 4.9 W 26 37 14 20 1010.9 1011.9 0.0
16/09:30am 7.9 1.5 -4.5 41 4.6 WSW 20 32 11 17 1010.9 1011.9 0.0
16/09:00am 7.3 0.7 -3.2 47 4.0 W 22 28 12 15 1010.4 1011.4 0.0
16/08:30am 6.1 1.2 -3.3 51 3.6 SW 13 20 7 11 1010.2 1011.2 0.0
16/08:00am 5.3 1.3 -2.5 57 3.0 W 9 13 5 7 1010.0 1011.0 0.0
16/07:30am 3.8 0.1 -2.8 62 2.5 W 7 13 4 7 1009.3 1010.3 0.0
16/07:00am 2.3 -3.3 -2.6 70 1.8 W 17 22 9 12 1008.9 1009.9 0.0
16/06:30am 2.0 -1.7 -3.1 69 1.8 E 7 13 4 7 1008.7 1009.6 0.0
16/06:20am 3.8 -1.6 -1.2 70 1.9 E 17 28 9 15 1008.7 1009.6 0.0
16/06:00am -1.6 -5.6 -5.6 74 1.2 NNW 7 15 4 8 1008.4 1009.4 0.0
16/05:30am 1.8 -2.2 -2.3 74 1.5 W 9 13 5 7 1008.3 1009.3 0.0
16/05:00am 2.7 -1.2 -1.3 75 1.5 WNW 9 13 5 7 1008.1 1009.1 0.0
16/04:30am 2.1 -1.3 -1.9 75 1.5 NNE 6 7 3 4 1008.0 1009.0 0.0
16/04:00am 3.8 -0.4 -0.8 72 1.8 SW 11 28 6 15 1007.8 1008.7 0.0
16/03:30am 4.1 0.6 -1.5 67 2.2 W 7 11 4 6 1007.7 1008.6 0.0
16/03:00am 4.7 0.9 -0.9 67 2.2 WSW 9 20 5 11 1007.8 1008.7 0.0
16/02:30am 3.8 -0.2 -2.4 64 2.3 S 9 15 5 8 1007.9 1008.9 0.0
16/02:00am 6.2 -0.1 -0.7 61 2.8 W 22 37 12 20 1007.9 1008.9 0.0
16/01:30am 6.5 -1.3 -0.5 61 2.8 WNW 30 41 16 22 1008.0 1009.0 0.0
16/01:00am 6.1 0.0 0.6 68 2.3 W 22 37 12 20 1008.0 1009.0 0.0
16/12:30am 6.2 -0.2 1.1 70 2.1 W 24 44 13 24 1008.4 1009.4 0.0
16/12:00am 5.3 -0.2 0.7 72 1.9 WNW 19 32 10 17 1008.6 1009.5 0.0
 
Date/Time
EST
Temp
°C
App
Temp
°C
Dew
Point
°C
Rel
Hum
%
Delta-T
°C
Wind Press
QNH
hPa
Press
MSL
hPa
Rain since
9am
mm
Dir  Spd
km/h
Gust
km/h
Spd
kts
Gust
kts
15/11:30pm 5.7 -1.0 1.4 74 1.8 W 26 35 14 19 1008.4 1009.4 0.0
15/11:06pm 6.2 -1.3 1.5 72 2.0 W 30 56 16 30 1008.3 1009.3 0.0
15/11:00pm 6.1 -0.5 1.8 74 1.8 W 26 44 14 24 1008.3 1009.3 0.0
15/10:30pm 6.8 -0.2 2.1 72 2.0 W 28 43 15 23 1008.2 1009.2 0.0
15/10:17pm 7.8 0.5 2.7 70 2.3 W 30 54 16 29 1008.1 1009.1 0.0
15/10:00pm 7.9 1.7 2.2 67 2.5 WNW 24 41 13 22 1007.6 1008.5 0.0
15/09:30pm 7.4 1.1 1.7 67 2.5 WNW 24 35 13 19 1007.2 1008.2 0.0
15/09:00pm 8.2 -0.9 1.6 63 2.9 NW 39 67 21 36 1007.6 1008.5 0.0
15/08:52pm 8.4 -0.4 1.3 61 3.1 WNW 37 67 20 36 1007.5 1008.4 0.0
15/08:32pm 7.9 0.8 1.3 63 2.8 WNW 28 48 15 26 1007.8 1008.7 0.0
15/08:30pm 8.0 0.9 1.2 62 2.9 WNW 28 43 15 23 1007.7 1008.6 0.0
15/08:07pm 8.7 1.5 0.9 58 3.4 WNW 28 46 15 25 1007.5 1008.4 0.0
15/08:00pm 9.0 1.5 1.0 57 3.5 WNW 30 46 16 25 1007.5 1008.4 0.0
15/07:35pm 9.3 2.1 1.0 56 3.6 NW 28 52 15 28 1006.9 1007.9 0.0
15/07:30pm 8.9 2.5 0.9 57 3.4 NW 24 37 13 20 1007.0 1008.0 0.0
15/07:00pm 9.1 2.3 0.6 55 3.7 NW 26 43 14 23 1007.1 1008.1 0.0
15/06:30pm 8.8 2.8 0.8 57 3.4 NW 22 41 12 22 1007.4 1008.3 0.0
15/06:00pm 8.4 3.4 1.6 62 3.0 NNW 17 32 9 17 1007.5 1008.4 0.0
15/05:30pm 7.7 2.4 2.0 67 2.5 NNW 19 28 10 15 1007.5 1008.4 0.0
15/05:00pm 8.1 1.9 2.4 67 2.5 NW 24 39 13 21 1007.7 1008.6 0.0
15/04:30pm 8.1 1.9 2.4 67 2.5 NW 24 43 13 23 1007.8 1008.7 0.0
15/04:00pm 8.4 1.9 2.4 66 2.7 NW 26 43 14 23 1007.9 1008.9 0.0
15/03:30pm 8.7 1.3 1.6 61 3.1 NW 30 57 16 31 1008.1 1009.1 0.0
15/03:27pm 8.9 1.8 1.3 59 3.3 NW 28 57 15 31 1008.1 1009.1 0.0
15/03:00pm 9.8 2.0 1.7 57 3.6 WNW 32 44 17 24 1008.6 1009.5 0.0
15/02:30pm 9.9 1.9 1.5 56 3.7 WNW 33 56 18 30 1008.3 1009.3 0.0
15/02:00pm 9.7 -0.2 1.4 56 3.7 WNW 43 63 23 34 1007.8 1008.7 0.0
15/01:30pm 10.9 0.0 1.2 51 4.3 WNW 48 69 26 37 1007.7 1008.6 0.0
15/01:00pm 11.6 0.6 0.7 47 4.8 WNW 48 69 26 37 1008.0 1009.0 0.0
15/12:30pm 13.0 2.2 -0.6 39 5.9 WNW 46 70 25 38 1007.6 1008.5 0.0
15/12:00pm 12.8 0.4 -1.1 38 6.0 WNW 54 78 29 42 1007.8 1008.7 0.0
15/11:30am 13.2 0.7 -1.9 35 6.4 WNW 54 85 29 46 1007.7 1008.6 0.0
15/11:00am 13.0 1.2 -2.1 35 6.3 WNW 50 82 27 44 1008.0 1009.0 0.0
15/10:30am 12.9 2.4 -2.2 35 6.3 WNW 43 76 23 41 1008.2 1009.2 0.0
15/10:00am 12.3 2.2 -2.7 35 6.2 WNW 41 72 22 39 1008.3 1009.3 0.0
15/09:30am 11.7 2.7 -2.9 36 5.9 WNW 35 63 19 34 1009.3 1010.3 0.0
15/09:00am 10.5 0.5 -1.9 42 5.1 WNW 41 67 22 36 1009.1 1010.1 0.0
15/08:30am 10.1 -0.2 -0.7 47 4.5 WNW 43 67 23 36 1008.7 1009.6 0.0
15/08:00am 9.2 -1.6 -0.7 50 4.1 WNW 46 72 25 39 1008.3 1009.3 0.0
15/07:30am 8.5 -3.1 -1.0 51 3.9 WNW 50 74 27 40 1008.6 1009.5 0.0
15/07:00am 7.9 -4.5 -1.3 52 3.7 WNW 54 78 29 42 1008.3 1009.3 0.0
15/06:30am 7.6 -4.8 -1.1 54 3.5 WNW 54 82 29 44 1008.7 1009.6 0.0
15/06:00am 7.3 -5.4 -0.4 58 3.2 WNW 56 87 30 47 1008.2 1009.2 0.0
15/05:30am 7.1 -4.4 -0.4 59 3.1 NW 50 78 27 42 1008.6 1009.5 0.0
15/05:00am 7.0 -4.5 -0.4 59 3.0 WNW 50 70 27 38 1009.8 1010.8 0.0
15/04:30am 6.9 -3.9 -0.3 60 3.0 WNW 46 69 25 37 1010.4 1011.4 0.0
15/04:00am 6.9 -4.3 -0.5 59 3.0 WNW 48 74 26 40 1010.9 1011.9 0.0
15/03:30am 6.9 -1.5 -0.8 58 3.1 WNW 33 57 18 31 1011.5 1012.6 0.0
15/03:00am 6.9 -1.8 -0.5 59 3.0 WNW 35 54 19 29 1011.2 1012.2 0.0
15/02:30am 6.8 -1.0 -0.6 59 3.0 NW 30 48 16 26 1012.4 1013.4 0.0
15/02:00am 6.8 -0.5 -0.2 61 2.9 NW 28 48 15 26 1013.0 1014.1 0.0
15/01:32am 6.9 -0.4 -0.3 60 3.0 NW 28 48 15 26 1013.0 1014.1 0.0
15/01:30am 6.8 -0.2 -0.2 61 2.9 NW 26 48 14 26 1013.0 1014.1 0.0
15/01:00am 6.9 0.9 -1.5 55 3.4 NNW 20 43 11 23 1013.2 1014.2 0.0
15/12:30am 6.0 2.1 -1.6 58 3.0 NNE 9 22 5 12 1013.6 1014.7 0.0
15/12:00am 6.3 -0.4 -3.9 48 3.8 N 22 39 12 21 1013.7 1014.8 0.0
 
Date/Time
EST
Temp
°C
App
Temp
°C
Dew
Point
°C
Rel
Hum
%
Delta-T
°C
Wind Press
QNH
hPa
Press
MSL
hPa
Rain since
9am
mm
Dir  Spd
km/h
Gust
km/h
Spd
kts
Gust
kts
14/11:30pm 7.0 -0.6 -2.2 52 3.6 NNW 28 41 15 22 1014.0 1015.1 0.0
14/11:00pm 6.3 1.4 -3.3 50 3.6 NE 13 22 7 12 1014.9 1016.0 0.0
14/10:30pm 6.4 0.8 -3.0 51 3.6 NE 17 26 9 14 1015.2 1016.4 0.0
14/10:00pm 7.4 1.5 -2.6 49 3.9 N 19 30 10 16 1015.5 1016.6 0.0
14/09:30pm 7.5 2.0 -2.2 50 3.8 NNW 17 28 9 15 1016.0 1017.1 0.0
14/09:00pm 8.0 3.2 -2.9 46 4.2 NE 13 24 7 13 1016.4 1017.6 0.0
14/08:30pm 5.1 -0.3 -4.7 49 3.5 N 15 19 8 10 1016.9 1018.0 0.0
14/08:00pm 5.4 -0.8 -4.7 48 3.6 NE 19 20 10 11 1017.3 1018.5 0.0
14/07:30pm 8.1 1.9 -5.3 38 4.9 NNW 19 30 10 16 1017.2 1018.4 0.0
14/07:00pm 7.1 1.3 -4.6 43 4.3 N 17 20 9 11 1017.3 1018.5 0.0
14/06:30pm 8.3 2.2 -4.2 41 4.7 N 19 20 10 11 1017.4 1018.6 0.0
14/06:00pm 9.5 3.6 -5.6 34 5.6 NNW 17 22 9 12 1017.2 1018.4 0.0
14/05:30pm 11.4 5.3 -7.4 26 6.9 NNW 17 24 9 13 1017.2 1018.4 0.0
14/05:00pm 13.7 7.8 -9.5 19 8.3 NW 15 22 8 12 1017.3 1018.5 0.0
14/04:30pm 15.3 9.4 -9.6 17 9.1 NW 15 19 8 10 1017.4 1018.6 0.0
14/04:00pm 16.6 11.4 -6.4 20 9.1 NW 13 22 7 12 1017.6 1018.8 0.0
14/03:30pm 17.1 10.9 -8.9 16 9.8 W 17 26 9 14 1017.8 1018.9 0.0
14/03:00pm 17.6 11.1 -8.5 16 10.0 W 19 26 10 14 1017.8 1018.9 0.0
14/02:30pm 17.6 10.8 -9.3 15 10.1 W 20 30 11 16 1017.6 1018.8 0.0
14/02:00pm 17.3 9.7 -9.5 15 10.0 W 24 32 13 17 1018.2 1019.4 0.0
14/01:30pm 17.1 9.8 -6.7 19 9.4 W 24 32 13 17 1018.5 1019.7 0.0
14/01:00pm 16.9 10.4 -2.2 27 8.3 W 22 32 12 17 1019.1 1020.3 0.0
14/12:30pm 16.2 10.4 -1.4 30 7.7 WNW 19 28 10 15 1019.6 1020.8 0.0
14/12:00pm 15.4 9.6 0.0 35 6.9 NW 20 30 11 16 1020.3 1021.5 0.0
14/11:30am 14.4 8.6 -0.1 37 6.4 NW 20 32 11 17 1020.4 1021.6 0.0
14/11:00am 13.6 7.6 0.9 42 5.7 NNW 22 28 12 15 1021.1 1022.4 0.0
14/10:30am 13.0 7.5 0.7 43 5.5 NNW 19 24 10 13 1021.4 1022.6 0.0
14/10:00am 12.4 7.4 1.1 46 5.0 NNW 17 24 9 13 1021.5 1022.7 0.0
14/09:30am 11.0 5.4 -0.2 46 4.8 NNW 19 24 10 13 1021.6 1022.8 0.0
14/09:00am 9.8 4.6 0.4 52 4.0 NNW 17 24 9 13 1021.7 1023.0 0.0
14/08:30am 8.4 3.9 -0.1 55 3.6 N 13 22 7 12 1021.9 1023.2 0.0
14/08:00am 6.7 2.2 -0.1 62 2.8 N 13 19 7 10 1021.8 1023.1 0.0
14/07:30am 5.1 0.6 -0.3 68 2.2 N 13 20 7 11 1021.4 1022.6 0.0
14/07:00am 4.3 -1.6 -0.7 70 2.0 NNW 20 28 11 15 1020.8 1022.1 0.0
14/06:30am 4.5 -1.7 -0.5 70 2.0 NNW 22 30 12 16 1020.6 1021.8 0.0
14/06:00am 4.5 -1.3 -0.1 72 1.8 NNW 20 26 11 14 1020.6 1021.8 0.0
14/05:30am 4.5 -1.7 -0.5 70 2.0 NW 22 28 12 15 1020.5 1021.7 0.0
14/05:00am 4.1 -2.1 -0.5 72 1.8 NNW 22 26 12 14 1020.7 1022.0 0.0
14/04:30am 3.8 -0.7 -0.6 73 1.7 NW 13 19 7 10 1020.7 1022.0 0.0
14/04:00am 3.8 -0.4 -0.8 72 1.8 NW 11 13 6 7 1020.6 1021.8 0.0
14/03:30am 4.7 -0.1 -0.1 71 1.9 NW 15 20 8 11 1020.6 1021.8 0.0
14/03:00am 1.2 -1.0 -1.9 80 1.1 CALM 0 6 0 3 1020.8 1022.1 0.0
14/02:30am 2.8 -0.2 -2.1 70 1.8 ENE 4 9 2 5 1021.0 1022.3 0.0
14/02:00am 3.5 -0.3 -0.5 75 1.6 E 9 11 5 6 1021.4 1022.6 0.0
14/01:30am 4.8 -0.1 -0.4 69 2.1 NW 15 20 8 11 1021.5 1022.7 0.0
14/01:00am 5.1 0.6 -0.3 68 2.2 NW 13 22 7 12 1021.6 1022.8 0.0
14/12:30am 5.2 0.8 0.2 70 2.0 NW 13 22 7 12 1021.8 1023.1 0.0
14/12:00am 3.3 0.4 -1.3 72 1.8 SW 4 7 2 4 1021.7 1023.0 0.0
 
Date/Time
EST
Temp
°C
App
Temp
°C
Dew
Point
°C
Rel
Hum
%
Delta-T
°C
Wind Press
QNH
hPa
Press
MSL
hPa
Rain since
9am
mm
Dir  Spd
km/h
Gust
km/h
Spd
kts
Gust
kts
13/11:30pm 5.1 0.6 -0.5 67 2.2 WNW 13 19 7 10 1021.7 1023.0 0.0
13/11:00pm 5.3 0.0 -0.3 67 2.3 WNW 17 24 9 13 1021.8 1023.1 0.0
13/10:30pm 5.8 0.2 -0.3 65 2.5 WNW 19 28 10 15 1021.8 1023.1 0.0

Latest Capital City Observations: Canberra | Sydney | Melbourne | Brisbane | Adelaide | Perth | Hobart | Darwin

Other Formats:

Comma delimited format used in spreadsheet applications
http://www.bom.gov.au/fwo/IDN60903/IDN60903.94921.axf

JavaScript Object Notation format (JSON) in row-major order
http://www.bom.gov.au/fwo/IDN60903/IDN60903.94921.json